Time;durP1;ratioP1;P1;durP2;ratioP2;P2;SDS_P1;SDS_P2;PMS_P1;PMS_P2;Temp;Humidity;BMP_temperature;BMP_pressure;BME280_temperature;BME280_humidity;BME280_pressure;Samples;Min_cycle;Max_cycle;Signal;HPM_P1;HPM_P2
2022/12/03 00:07:57;;;;;;;27.33;14.50;;;;;;;2.21;100.00;100551.25;21067623;28;20044;-75
2022/12/03 00:17:58;;;;;;;28.45;13.88;;;;;;;2.27;100.00;100547.91;21055476;28;20139;-75
2022/12/03 00:28:00;;;;;;;24.75;13.27;;;;;;;2.31;100.00;100545.44;20983264;28;20056;-75
2022/12/03 00:38:01;;;;;;;26.50;13.48;;;;;;;2.26;100.00;100544.47;20916586;28;20049;-75
2022/12/03 00:48:02;;;;;;;27.10;13.02;;;;;;;2.30;100.00;100535.94;20902562;28;20106;-74
2022/12/03 00:58:03;;;;;;;26.10;12.55;;;;;;;2.31;100.00;100544.56;20908400;28;20049;-72
2022/12/03 01:08:05;;;;;;;27.02;13.20;;;;;;;2.41;100.00;100543.03;20979830;28;20118;-73
2022/12/03 01:18:06;;;;;;;26.90;13.55;;;;;;;2.34;100.00;100554.06;21009707;28;20052;-73
2022/12/03 01:28:07;;;;;;;25.25;12.50;;;;;;;2.38;100.00;100548.13;21080356;28;20496;-73
2022/12/03 01:38:08;;;;;;;24.35;12.57;;;;;;;2.39;100.00;100544.69;21078346;28;20059;-73
2022/12/03 01:48:10;;;;;;;24.10;12.25;;;;;;;2.41;100.00;100554.25;21041844;28;20088;-72
2022/12/03 01:58:11;;;;;;;25.67;12.38;;;;;;;2.37;100.00;100567.06;20993799;28;20480;-74
2022/12/03 02:08:12;;;;;;;27.20;12.90;;;;;;;2.47;100.00;100566.41;21059303;28;20060;-74
2022/12/03 02:18:13;;;;;;;28.02;13.23;;;;;;;2.36;100.00;100573.06;21059326;28;20147;-73
2022/12/03 02:28:15;;;;;;;24.25;12.38;;;;;;;2.44;100.00;100568.91;20990643;28;20090;-72
2022/12/03 02:38:16;;;;;;;25.70;12.68;;;;;;;2.48;100.00;100568.13;20989303;28;20405;-72
2022/12/03 02:48:17;;;;;;;28.40;13.25;;;;;;;2.43;100.00;100556.84;20989160;28;20087;-73
2022/12/03 02:58:18;;;;;;;31.20;14.73;;;;;;;2.35;100.00;100558.38;20987762;28;20098;-73
2022/12/03 03:08:19;;;;;;;32.30;13.68;;;;;;;2.40;100.00;100556.81;20987341;28;20435;-73
2022/12/03 03:18:21;;;;;;;29.05;13.50;;;;;;;2.41;100.00;100551.66;21002219;28;20459;-73
2022/12/03 03:28:22;;;;;;;28.77;14.27;;;;;;;2.33;100.00;100554.91;21070502;28;20056;-73
2022/12/03 03:38:23;;;;;;;32.28;15.25;;;;;;;2.41;100.00;100553.38;21070536;28;20063;-72
2022/12/03 03:48:25;;;;;;;39.63;17.58;;;;;;;2.39;100.00;100548.16;21068325;28;20048;-73
2022/12/03 03:58:26;;;;;;;36.00;16.38;;;;;;;2.42;100.00;100544.78;21067932;28;20446;-73
2022/12/03 04:08:27;;;;;;;36.05;15.90;;;;;;;2.41;100.00;100543.91;21067544;28;20075;-76
2022/12/03 04:18:44;;;;;;;37.00;16.80;;;;;;;2.31;100.00;100537.69;21051244;28;20080;-72
2022/12/03 04:28:48;;;;;;;37.17;17.08;;;;;;;2.37;100.00;100539.50;20986693;28;20064;-72
2022/12/03 04:38:49;;;;;;;37.03;15.98;;;;;;;2.36;100.00;100539.50;21026302;28;20458;-75
2022/12/03 04:48:51;;;;;;;33.17;15.65;;;;;;;2.33;100.00;100539.41;21082578;28;20087;-73
2022/12/03 04:58:52;;;;;;;36.13;16.25;;;;;;;2.38;100.00;100540.38;21081262;28;20109;-74
2022/12/03 05:08:53;;;;;;;42.58;17.50;;;;;;;2.45;100.00;100537.09;21080495;28;20048;-74
2022/12/03 05:18:54;;;;;;;41.58;18.70;;;;;;;2.42;100.00;100532.72;21060362;28;20496;-75
2022/12/03 05:28:55;;;;;;;39.85;17.38;;;;;;;2.44;100.00;100524.97;20995665;28;20075;-74
2022/12/03 05:38:57;;;;;;;39.67;17.77;;;;;;;2.34;100.00;100517.91;20993360;28;20055;-74
2022/12/03 05:59:42;;;;;;;38.08;17.30;;;;;;;2.37;100.00;100499.88;20996485;28;20052;-74
2022/12/03 06:09:43;;;;;;;39.15;16.77;;;;;;;2.36;100.00;100513.66;20992078;28;20110;-74
2022/12/03 06:19:45;;;;;;;40.90;17.15;;;;;;;2.36;100.00;100511.06;21018321;28;20063;-73
2022/12/03 06:29:46;;;;;;;36.42;15.27;;;;;;;2.36;100.00;100518.81;21073617;28;20052;-73
2022/12/03 06:39:47;;;;;;;40.83;17.17;;;;;;;2.28;100.00;100521.25;21071794;28;20060;-78
2022/12/03 06:49:48;;;;;;;36.17;15.88;;;;;;;2.32;100.00;100512.72;21072199;28;20048;-74
2022/12/03 06:59:50;;;;;;;43.67;17.73;;;;;;;2.22;100.00;100527.16;21072089;28;20629;-73
2022/12/03 07:09:51;;;;;;;40.42;17.42;;;;;;;2.19;100.00;100536.56;21069908;28;20329;-74
2022/12/03 07:19:52;;;;;;;45.13;18.52;;;;;;;2.12;100.00;100530.41;21040371;28;20068;-76
2022/12/03 07:29:54;;;;;;;47.40;19.17;;;;;;;1.98;100.00;100529.25;20984966;28;20060;-75
2022/12/03 07:39:55;;;;;;;48.05;20.02;;;;;;;2.08;100.00;100536.34;20982559;28;20060;-76
2022/12/03 07:49:56;;;;;;;46.28;19.33;;;;;;;2.22;100.00;100540.09;20982610;28;20479;-74
2022/12/03 07:59:57;;;;;;;49.13;19.15;;;;;;;2.15;100.00;100535.63;20986208;28;20059;-76
2022/12/03 08:09:59;;;;;;;49.65;20.20;;;;;;;2.14;100.00;100533.88;20942064;28;20056;-74
2022/12/03 08:20:00;;;;;;;46.80;20.15;;;;;;;2.27;100.00;100535.00;20948277;28;20057;-75
2022/12/03 08:30:01;;;;;;;49.03;21.38;;;;;;;2.48;100.00;100514.72;20947057;28;20049;-75
2022/12/03 08:40:02;;;;;;;53.50;21.80;;;;;;;2.54;100.00;100508.84;21026397;28;20037;-76
2022/12/03 08:50:04;;;;;;;49.65;19.88;;;;;;;2.74;100.00;100528.16;21030636;28;20052;-76
2022/12/03 09:00:05;;;;;;;52.35;20.63;;;;;;;2.86;100.00;100509.38;20997455;28;20425;-75
2022/12/03 09:10:06;;;;;;;45.53;19.92;;;;;;;2.94;100.00;100519.88;20997602;28;20052;-73
2022/12/03 09:20:08;;;;;;;48.25;20.73;;;;;;;2.94;100.00;100520.75;21009085;28;20048;-73
2022/12/03 09:30:09;;;;;;;54.65;23.10;;;;;;;2.94;100.00;100527.63;21079308;28;20052;-73
2022/12/03 09:40:10;;;;;;;55.90;22.95;;;;;;;3.04;100.00;100516.59;21076555;28;20055;-73
2022/12/03 09:50:11;;;;;;;58.13;22.40;;;;;;;3.07;100.00;100501.13;21077754;28;20052;-75
2022/12/03 10:00:13;;;;;;;57.33;21.88;;;;;;;3.13;100.00;100506.41;21037116;28;20075;-74
2022/12/03 10:10:14;;;;;;;54.00;22.08;;;;;;;3.24;100.00;100491.03;20996745;28;20126;-74
2022/12/03 10:20:15;;;;;;;59.40;25.27;;;;;;;3.27;100.00;100468.69;21026371;28;20051;-74
2022/12/03 10:30:16;;;;;;;49.72;22.73;;;;;;;3.28;100.00;100462.66;21076188;28;20055;-74
2022/12/03 10:40:18;;;;;;;52.90;21.55;;;;;;;3.40;100.00;100451.59;21075026;28;20044;-75
2022/12/03 10:50:19;;;;;;;56.60;23.33;;;;;;;3.54;100.00;100459.53;21075376;28;20051;-76
2022/12/03 11:00:21;;;;;;;48.70;21.48;;;;;;;3.71;100.00;100433.91;21076402;28;20052;-76
2022/12/03 11:10:22;;;;;;;53.25;21.40;;;;;;;3.73;100.00;100422.69;21074350;28;20497;-78
2022/12/03 11:20:24;;;;;;;49.05;21.20;;;;;;;3.58;100.00;100407.84;21038269;28;20060;-75
2022/12/03 11:30:25;;;;;;;51.33;22.50;;;;;;;3.72;100.00;100389.88;20986654;28;20424;-74
2022/12/03 11:40:41;;;;;;;52.03;22.15;;;;;;;3.79;100.00;100391.72;20941033;28;20381;-75
2022/12/03 11:50:43;;;;;;;56.55;22.48;;;;;;;3.99;100.00;100388.47;20984952;28;20539;-82
2022/12/03 12:00:44;;;;;;;55.33;22.98;;;;;;;3.81;100.00;100371.00;20984005;28;20523;-74
2022/12/03 12:10:45;;;;;;;48.45;21.98;;;;;;;3.89;100.00;100352.97;20984063;28;20067;-73
2022/12/03 12:20:47;;;;;;;52.63;22.58;;;;;;;3.84;100.00;100339.97;21019124;28;20060;-73
2022/12/03 12:30:48;;;;;;;56.45;22.73;;;;;;;3.94;100.00;100325.38;21067608;28;20052;-71
2022/12/03 12:40:49;;;;;;;58.63;22.58;;;;;;;3.88;100.00;100327.88;21065451;28;20052;-72
2022/12/03 12:50:50;;;;;;;54.35;24.20;;;;;;;3.90;100.00;100323.63;21069471;28;20059;-71
2022/12/03 13:00:52;;;;;;;57.45;24.20;;;;;;;3.99;100.00;100306.44;21080772;28;20196;-71
2022/12/03 13:10:53;;;;;;;56.20;24.60;;;;;;;4.06;100.00;100309.94;21083011;28;20060;-72
2022/12/03 13:20:54;;;;;;;54.58;23.83;;;;;;;4.11;100.00;100296.16;21042822;28;20061;-72
2022/12/03 13:30:56;;;;;;;59.95;25.08;;;;;;;4.11;100.00;100284.94;20994024;28;20064;-72
2022/12/03 13:40:57;;;;;;;65.78;26.10;;;;;;;4.31;100.00;100283.41;20993614;28;20102;-72
2022/12/03 13:50:59;;;;;;;53.55;23.00;;;;;;;4.29;100.00;100269.53;21042551;28;20059;-70
2022/12/03 14:01:00;;;;;;;44.40;20.77;;;;;;;4.32;100.00;100266.13;21072617;28;20060;-73
2022/12/03 14:11:01;;;;;;;47.95;20.08;;;;;;;4.31;100.00;100278.22;21074903;28;20408;-74
2022/12/03 14:21:03;;;;;;;42.10;19.10;;;;;;;4.29;100.00;100290.28;21036163;28;20185;-72
2022/12/03 14:31:04;;;;;;;46.45;21.73;;;;;;;4.26;100.00;100308.38;21093374;22;20118;-80
2022/12/03 14:42:11;;;;;;;36.38;17.00;;;;;;;4.26;100.00;100299.75;21004739;28;20058;-80
2022/12/03 14:51:26;;;;;;;38.58;18.27;;;;;;;4.23;100.00;100299.75;21046881;28;20051;-80
2022/12/03 15:01:28;;;;;;;43.88;20.70;;;;;;;4.26;100.00;100295.44;21053951;28;20044;-80
2022/12/03 15:11:29;;;;;;;37.45;18.98;;;;;;;4.15;100.00;100291.03;21075109;28;20052;-80
2022/12/03 15:21:33;;;;;;;33.03;16.15;;;;;;;4.10;100.00;100294.44;21013381;28;20425;-79
2022/12/03 15:31:35;;;;;;;38.60;20.50;;;;;;;4.10;100.00;100290.97;20987058;28;20052;-80
2022/12/03 15:41:36;;;;;;;34.53;15.77;;;;;;;3.96;100.00;100287.41;20990151;28;20122;-79
2022/12/03 15:51:37;;;;;;;35.38;17.35;;;;;;;3.96;100.00;100298.63;20989972;28;20719;-79
2022/12/03 16:01:39;;;;;;;34.17;17.33;;;;;;;3.96;100.00;100295.16;20970856;28;20048;-80
2022/12/03 16:11:40;;;;;;;31.77;15.20;;;;;;;3.92;100.00;100296.00;20970201;28;20489;-80
2022/12/03 16:21:41;;;;;;;35.03;16.85;;;;;;;3.86;100.00;100300.25;21014835;28;20048;-80
2022/12/03 16:31:44;;;;;;;33.03;16.83;;;;;;;3.73;100.00;100300.97;21085327;28;20098;-80
2022/12/03 16:41:45;;;;;;;42.03;19.80;;;;;;;3.77;100.00;100289.81;21090250;28;20458;-80
2022/12/03 16:51:47;;;;;;;38.58;17.92;;;;;;;3.75;100.00;100288.06;21087547;28;20146;-80
2022/12/03 17:01:48;;;;;;;36.35;17.05;;;;;;;3.75;100.00;100288.06;21088740;28;20089;-80
2022/12/03 17:11:50;;;;;;;36.03;16.55;;;;;;;3.59;100.00;100277.56;21088397;28;20060;-79
2022/12/03 17:21:52;;;;;;;39.45;17.50;;;;;;;3.50;100.00;100274.00;21021837;28;20052;-80
2022/12/03 17:31:54;;;;;;;40.50;18.33;;;;;;;3.49;100.00;100282.59;20995903;28;20057;-81
2022/12/03 17:41:55;;;;;;;45.15;18.98;;;;;;;3.51;100.00;100267.97;20994625;28;20415;-80
2022/12/03 17:51:56;;;;;;;45.40;18.63;;;;;;;3.46;100.00;100259.28;20995360;28;20048;-80
2022/12/03 18:01:57;;;;;;;43.95;20.10;;;;;;;3.52;100.00;100256.75;21049653;28;20052;-80
2022/12/03 18:11:59;;;;;;;45.03;20.02;;;;;;;3.44;100.00;100253.22;21071657;28;20492;-80
2022/12/03 18:22:00;;;;;;;45.88;19.60;;;;;;;3.34;100.00;100266.06;21030174;28;20048;-81
2022/12/03 18:32:01;;;;;;;41.40;17.92;;;;;;;3.34;100.00;100260.00;21022459;28;20105;-80
2022/12/03 18:42:03;;;;;;;43.45;20.50;;;;;;;3.29;100.00;100249.59;21052075;28;20326;-80
2022/12/03 18:52:04;;;;;;;40.22;18.45;;;;;;;3.32;100.00;100251.38;21070781;28;20056;-80
2022/12/03 19:02:05;;;;;;;40.35;17.67;;;;;;;3.30;100.00;100250.47;21054639;28;20547;-80
2022/12/03 19:12:07;;;;;;;38.97;17.77;;;;;;;3.16;100.00;100252.91;20974193;28;20552;-80
2022/12/03 19:22:14;;;;;;;41.63;18.63;;;;;;;3.20;100.00;100240.88;21038053;28;20052;-80
2022/12/03 19:32:16;;;;;;;40.72;19.17;;;;;;;3.08;100.00;100259.72;20967705;28;20494;-80
2022/12/03 19:42:17;;;;;;;39.25;16.63;;;;;;;2.99;100.00;100254.44;20905650;28;20095;-80
2022/12/03 19:52:18;;;;;;;38.90;17.40;;;;;;;2.93;100.00;100254.34;20942617;28;20536;-80
2022/12/03 20:02:19;;;;;;;42.75;17.90;;;;;;;2.92;100.00;100252.59;20968811;28;20076;-79
2022/12/03 20:12:21;;;;;;;41.65;19.35;;;;;;;2.89;100.00;100245.69;20992923;28;20481;-80
2022/12/03 20:22:22;;;;;;;41.83;17.95;;;;;;;2.88;100.00;100241.38;20923820;28;20057;-80
2022/12/03 20:32:23;;;;;;;39.80;17.95;;;;;;;2.87;100.00;100238.75;20954611;28;20113;-81
2022/12/03 20:42:25;;;;;;;42.28;18.48;;;;;;;2.95;100.00;100247.47;20977301;28;20069;-81
2022/12/03 20:52:29;;;;;;;39.30;17.17;;;;;;;2.97;100.00;100233.72;21005577;28;20085;-80
2022/12/03 21:02:30;;;;;;;35.53;16.80;;;;;;;2.87;100.00;100228.41;20966647;28;20441;-81
2022/12/03 21:12:31;;;;;;;38.03;17.75;;;;;;;2.86;100.00;100224.09;20985730;28;20052;-81
2022/12/03 21:22:33;;;;;;;47.78;20.17;;;;;;;2.79;100.00;100213.69;20978856;28;20074;-81
2022/12/03 21:32:34;;;;;;;42.22;18.52;;;;;;;2.68;100.00;100216.94;20982907;28;20582;-81
2022/12/03 21:42:35;;;;;;;43.72;18.42;;;;;;;2.75;100.00;100209.31;20975750;28;20052;-81
2022/12/03 21:52:37;;;;;;;42.70;17.77;;;;;;;2.72;100.00;100214.44;20976012;28;20144;-81
2022/12/03 22:02:39;;;;;;;38.92;16.65;;;;;;;2.72;100.00;100206.66;21004778;28;20079;-82
2022/12/03 22:12:40;;;;;;;44.60;18.58;;;;;;;2.81;100.00;100208.50;21065256;28;20136;-80
2022/12/03 22:22:42;;;;;;;42.60;17.45;;;;;;;2.67;100.00;100204.88;21022897;28;20128;-81
2022/12/03 22:32:43;;;;;;;46.80;18.40;;;;;;;2.67;100.00;100200.56;20986340;28;20044;-82
2022/12/03 22:42:44;;;;;;;51.00;19.02;;;;;;;2.61;100.00;100194.47;20981414;28;20080;-82
2022/12/03 22:52:51;;;;;;;42.42;17.60;;;;;;;2.45;100.00;100193.41;20986772;28;20052;-81
2022/12/03 23:02:52;;;;;;;43.00;17.58;;;;;;;2.29;100.00;100167.34;21012549;28;20051;-82
2022/12/03 23:12:54;;;;;;;40.40;17.73;;;;;;;2.43;100.00;100169.25;21070867;28;20063;-81
2022/12/03 23:22:55;;;;;;;40.05;16.20;;;;;;;2.28;100.00;100173.34;21087691;28;20649;-81
2022/12/03 23:32:56;;;;;;;43.95;18.25;;;;;;;2.33;100.00;100159.63;21087007;28;20052;-79
2022/12/03 23:43:00;;;;;;;42.22;17.85;;;;;;;2.43;100.00;100195.09;21087191;28;20060;-79
2022/12/03 23:53:01;;;;;;;46.40;18.03;;;;;;;2.49;100.00;100179.66;21061061;28;20059;-81
